Time;durP1;ratioP1;P1;durP2;ratioP2;P2;SDS_P1;SDS_P2;PMS_P1;PMS_P2;Temp;Humidity;BMP_temperature;BMP_pressure;BME280_temperature;BME280_humidity;BME280_pressure;Samples;Min_cycle;Max_cycle;Signal;HPM_P1;HPM_P2
2021/06/27 00:01:22;;;;;;;4.40;2.97;;;;;;;;;;5056363;28;20111;-43
2021/06/27 00:03:47;;;;;;;7.22;3.22;;;;;;;;;;5059202;28;20020;-43
2021/06/27 00:06:13;;;;;;;4.75;3.35;;;;;;;;;;5055909;28;20082;-43
2021/06/27 00:08:38;;;;;;;2.40;2.05;;;;;;;;;;5054754;28;20028;-42
2021/06/27 00:11:04;;;;;;;3.70;1.95;;;;;;;;;;5056452;28;20411;-43
2021/06/27 00:13:30;;;;;;;6.32;2.38;;;;;;;;;;5057534;28;20024;-44
2021/06/27 00:15:56;;;;;;;3.28;2.42;;;;;;;;;;5057300;28;20529;-43
2021/06/27 00:18:22;;;;;;;5.32;2.92;;;;;;;;;;5056720;28;20060;-42
2021/06/27 00:20:49;;;;;;;6.13;3.28;;;;;;;;;;5057229;28;20545;-42
2021/06/27 00:23:15;;;;;;;4.85;2.42;;;;;;;;;;5056596;28;20029;-45
2021/06/27 00:25:42;;;;;;;4.85;3.08;;;;;;;;;;5057863;28;20056;-43
2021/06/27 00:28:08;;;;;;;4.70;2.00;;;;;;;;;;5061805;28;20115;-44
2021/06/27 00:30:34;;;;;;;4.72;2.70;;;;;;;;;;5062776;28;20033;-43
2021/06/27 00:33:01;;;;;;;5.80;2.30;;;;;;;;;;5058884;28;20025;-43
2021/06/27 00:35:26;;;;;;;4.20;2.97;;;;;;;;;;5058598;28;20050;-44
2021/06/27 00:37:52;;;;;;;10.27;4.95;;;;;;;;;;5053919;28;20059;-44
2021/06/27 00:40:19;;;;;;;12.30;3.47;;;;;;;;;;5056784;28;20053;-44
2021/06/27 00:42:44;;;;;;;4.07;2.30;;;;;;;;;;5060314;28;20051;-44
2021/06/27 00:45:11;;;;;;;4.13;2.95;;;;;;;;;;5057872;28;20459;-43
2021/06/27 00:47:37;;;;;;;3.55;2.53;;;;;;;;;;5057450;28;20739;-44
2021/06/27 00:50:04;;;;;;;9.25;2.47;;;;;;;;;;5060108;28;20025;-44
2021/06/27 00:52:29;;;;;;;3.00;2.55;;;;;;;;;;5056100;28;20049;-43
2021/06/27 00:54:54;;;;;;;2.95;2.20;;;;;;;;;;5057483;28;20055;-45
2021/06/27 00:57:20;;;;;;;2.83;2.05;;;;;;;;;;5059557;28;20031;-42
2021/06/27 00:59:46;;;;;;;2.38;2.00;;;;;;;;;;5056977;28;20024;-44
2021/06/27 01:02:11;;;;;;;3.35;2.13;;;;;;;;;;5056453;28;20464;-44
2021/06/27 01:04:37;;;;;;;7.07;2.45;;;;;;;;;;5056871;28;20443;-48
2021/06/27 01:07:03;;;;;;;3.70;2.47;;;;;;;;;;5064481;28;20032;-44
2021/06/27 01:09:28;;;;;;;2.85;1.95;;;;;;;;;;5058027;28;20037;-46
2021/06/27 01:11:53;;;;;;;2.50;2.10;;;;;;;;;;5055960;28;20120;-44
2021/06/27 01:14:20;;;;;;;2.25;1.63;;;;;;;;;;5058682;28;20017;-47
2021/06/27 01:16:45;;;;;;;2.45;1.73;;;;;;;;;;5059607;28;20020;-44
2021/06/27 01:19:10;;;;;;;3.28;1.98;;;;;;;;;;5057074;28;20029;-46
2021/06/27 01:21:36;;;;;;;2.95;1.95;;;;;;;;;;5055444;28;20048;-44
2021/06/27 01:24:02;;;;;;;3.72;2.17;;;;;;;;;;5055275;28;20483;-42
2021/06/27 01:26:28;;;;;;;4.63;2.30;;;;;;;;;;5054830;28;20021;-44
2021/06/27 01:28:53;;;;;;;6.22;2.15;;;;;;;;;;5056401;28;20506;-43
2021/06/27 01:31:19;;;;;;;4.03;2.35;;;;;;;;;;5056524;28;20112;-43
2021/06/27 01:33:47;;;;;;;4.10;1.75;;;;;;;;;;5058857;28;20373;-44
2021/06/27 01:36:13;;;;;;;1.58;1.30;;;;;;;;;;5057036;28;20051;-44
2021/06/27 01:38:38;;;;;;;3.25;2.38;;;;;;;;;;5060371;28;20060;-44
2021/06/27 01:41:04;;;;;;;9.00;2.78;;;;;;;;;;5056083;28;20024;-43
2021/06/27 01:43:29;;;;;;;6.25;2.72;;;;;;;;;;5056453;28;20099;-44
2021/06/27 01:45:56;;;;;;;2.63;2.10;;;;;;;;;;5058611;28;20088;-45
2021/06/27 01:48:21;;;;;;;3.65;2.45;;;;;;;;;;5056247;28;20043;-44
2021/06/27 01:50:48;;;;;;;14.82;2.75;;;;;;;;;;5056669;28;20017;-43
2021/06/27 01:53:15;;;;;;;3.42;2.38;;;;;;;;;;5056410;28;20059;-43
2021/06/27 01:55:40;;;;;;;4.03;2.50;;;;;;;;;;5058001;28;20031;-43
2021/06/27 01:58:06;;;;;;;4.43;2.50;;;;;;;;;;5057380;28;20024;-43
2021/06/27 02:00:31;;;;;;;4.25;2.55;;;;;;;;;;5057549;28;20025;-43
2021/06/27 02:02:58;;;;;;;4.70;2.33;;;;;;;;;;5054464;28;20470;-43
2021/06/27 02:05:24;;;;;;;4.03;2.67;;;;;;;;;;5052292;28;20027;-42
2021/06/27 02:07:49;;;;;;;3.13;2.45;;;;;;;;;;5057812;28;20013;-44
2021/06/27 02:10:19;;;;;;;2.85;2.47;;;;;;;;;;5055873;28;20557;-43
2021/06/27 02:12:44;;;;;;;3.28;2.88;;;;;;;;;;5056097;28;20028;-43
2021/06/27 02:15:10;;;;;;;5.95;2.47;;;;;;;;;;5058025;28;20061;-44
2021/06/27 02:17:36;;;;;;;4.82;2.85;;;;;;;;;;5056797;28;20476;-43
2021/06/27 02:20:02;;;;;;;4.40;2.92;;;;;;;;;;5057119;28;20021;-43
2021/06/27 02:22:28;;;;;;;4.15;2.28;;;;;;;;;;5057595;28;20032;-44
2021/06/27 02:24:54;;;;;;;3.47;2.47;;;;;;;;;;5057291;28;20020;-43
2021/06/27 02:27:19;;;;;;;3.65;2.60;;;;;;;;;;5059346;28;20043;-44
2021/06/27 02:29:44;;;;;;;3.70;2.15;;;;;;;;;;5045505;28;20021;-42
2021/06/27 02:32:10;;;;;;;5.10;2.47;;;;;;;;;;5055033;28;20020;-45
2021/06/27 02:34:35;;;;;;;2.72;1.80;;;;;;;;;;5054803;28;20514;-43
2021/06/27 02:37:00;;;;;;;11.30;1.73;;;;;;;;;;5056254;28;20039;-44
2021/06/27 02:39:26;;;;;;;2.72;2.30;;;;;;;;;;5054088;28;20025;-43
2021/06/27 02:41:51;;;;;;;6.53;2.72;;;;;;;;;;5056329;28;20040;-45
2021/06/27 02:44:16;;;;;;;3.22;1.98;;;;;;;;;;5055668;28;20028;-43
2021/06/27 02:46:42;;;;;;;8.13;2.38;;;;;;;;;;5055830;28;20025;-43
2021/06/27 02:49:07;;;;;;;5.22;1.98;;;;;;;;;;5055517;28;20024;-43
2021/06/27 02:51:33;;;;;;;2.83;1.85;;;;;;;;;;5060832;28;20515;-43
2021/06/27 02:53:58;;;;;;;2.90;2.40;;;;;;;;;;5053627;28;20810;-43
2021/06/27 02:56:25;;;;;;;3.08;1.63;;;;;;;;;;5054326;28;20036;-43
2021/06/27 02:58:50;;;;;;;9.73;2.33;;;;;;;;;;5058569;28;20045;-43
2021/06/27 03:01:16;;;;;;;3.47;2.10;;;;;;;;;;5053228;28;20047;-43
2021/06/27 03:03:42;;;;;;;3.08;2.70;;;;;;;;;;5053725;28;20500;-44
2021/06/27 03:06:08;;;;;;;2.25;2.05;;;;;;;;;;5054244;28;20150;-44
2021/06/27 03:08:34;;;;;;;2.90;1.85;;;;;;;;;;5053577;28;20512;-43
2021/06/27 03:11:00;;;;;;;4.32;3.30;;;;;;;;;;5046798;28;20059;-44
2021/06/27 03:13:26;;;;;;;2.92;1.95;;;;;;;;;;5055272;28;20032;-43
2021/06/27 03:15:51;;;;;;;3.97;2.60;;;;;;;;;;5055167;28;20044;-44
2021/06/27 03:18:17;;;;;;;1.83;1.65;;;;;;;;;;5056251;28;20552;-46
2021/06/27 03:20:42;;;;;;;4.60;2.50;;;;;;;;;;5056839;28;20468;-43
2021/06/27 03:23:11;;;;;;;2.80;1.75;;;;;;;;;;5055881;28;20025;-44
2021/06/27 03:25:37;;;;;;;2.20;1.30;;;;;;;;;;5051580;28;20061;-43
2021/06/27 03:28:03;;;;;;;7.13;3.40;;;;;;;;;;5057731;28;20063;-43
2021/06/27 03:30:28;;;;;;;2.83;1.77;;;;;;;;;;5057479;28;20048;-43
2021/06/27 03:32:54;;;;;;;3.50;2.50;;;;;;;;;;5058254;28;20439;-43
2021/06/27 03:35:19;;;;;;;2.05;1.65;;;;;;;;;;5054985;28;20013;-45
2021/06/27 03:38:35;;;;;;;3.67;1.90;;;;;;;;;;5055750;28;20028;-43
2021/06/27 03:40:33;;;;;;;1.77;1.33;;;;;;;;;;5049525;28;20045;-43
2021/06/27 03:43:00;;;;;;;4.97;2.92;;;;;;;;;;5056563;28;20070;-43
2021/06/27 03:45:26;;;;;;;3.10;1.98;;;;;;;;;;5058672;28;20029;-44
2021/06/27 03:47:51;;;;;;;7.78;2.38;;;;;;;;;;5060850;28;20422;-44
2021/06/27 03:50:18;;;;;;;3.13;2.83;;;;;;;;;;5056753;28;20020;-43
2021/06/27 03:52:44;;;;;;;15.48;3.90;;;;;;;;;;5057178;28;20024;-42
2021/06/27 03:55:09;;;;;;;4.78;3.35;;;;;;;;;;5059819;28;20524;-45
2021/06/27 03:57:35;;;;;;;3.40;1.67;;;;;;;;;;5052317;28;20100;-44
2021/06/27 04:00:00;;;;;;;2.42;2.15;;;;;;;;;;5058597;28;20561;-43
2021/06/27 04:02:25;;;;;;;4.20;2.70;;;;;;;;;;5058964;28;20104;-44
2021/06/27 04:04:51;;;;;;;2.63;1.98;;;;;;;;;;5058924;28;20058;-44
2021/06/27 04:07:16;;;;;;;2.47;2.08;;;;;;;;;;5061071;28;20034;-47
2021/06/27 04:09:41;;;;;;;5.03;2.83;;;;;;;;;;5058842;28;20509;-45
2021/06/27 04:12:07;;;;;;;4.05;2.20;;;;;;;;;;5059487;28;20032;-43
2021/06/27 04:14:32;;;;;;;3.47;2.60;;;;;;;;;;5061220;28;20020;-45
2021/06/27 04:16:57;;;;;;;3.70;2.53;;;;;;;;;;5060064;28;20453;-44
2021/06/27 04:19:23;;;;;;;2.13;1.80;;;;;;;;;;5059702;28;20029;-44
2021/06/27 04:21:48;;;;;;;3.55;2.00;;;;;;;;;;5058966;28;20027;-42
2021/06/27 04:24:13;;;;;;;8.52;2.17;;;;;;;;;;5061851;28;20534;-47
2021/06/27 04:26:39;;;;;;;3.55;2.17;;;;;;;;;;5056268;28;20036;-44
2021/06/27 04:29:05;;;;;;;3.65;1.55;;;;;;;;;;5059765;28;20023;-43
2021/06/27 04:31:30;;;;;;;3.25;2.67;;;;;;;;;;5058650;28;20598;-44
2021/06/27 04:33:55;;;;;;;2.85;1.75;;;;;;;;;;5058600;28;20036;-43
2021/06/27 04:36:21;;;;;;;2.42;2.22;;;;;;;;;;5057129;28;20059;-45
2021/06/27 04:38:46;;;;;;;2.65;2.10;;;;;;;;;;5060715;28;20561;-44
2021/06/27 04:41:11;;;;;;;3.00;2.00;;;;;;;;;;5060407;28;20352;-45
2021/06/27 04:43:37;;;;;;;3.60;1.95;;;;;;;;;;5059231;28;20025;-43
2021/06/27 04:46:02;;;;;;;4.65;3.03;;;;;;;;;;5057227;28;20024;-44
2021/06/27 04:48:27;;;;;;;2.55;2.20;;;;;;;;;;5063495;28;20016;-43
2021/06/27 04:50:53;;;;;;;3.30;2.70;;;;;;;;;;5059784;28;20024;-44
2021/06/27 04:53:18;;;;;;;2.55;2.00;;;;;;;;;;5058270;28;20079;-42
2021/06/27 04:55:44;;;;;;;3.70;1.27;;;;;;;;;;5060283;28;20063;-44
2021/06/27 04:58:09;;;;;;;3.42;2.10;;;;;;;;;;5060685;28;20391;-42
2021/06/27 05:00:35;;;;;;;2.70;2.22;;;;;;;;;;5058604;28;20391;-44
2021/06/27 05:03:01;;;;;;;11.50;3.75;;;;;;;;;;5058418;28;20058;-42
2021/06/27 05:05:26;;;;;;;5.88;1.90;;;;;;;;;;5058257;28;20035;-43
2021/06/27 05:07:52;;;;;;;4.72;2.67;;;;;;;;;;5056417;28;20028;-43
2021/06/27 05:10:17;;;;;;;3.55;2.25;;;;;;;;;;5041643;28;20041;-43
2021/06/27 05:12:42;;;;;;;5.32;1.52;;;;;;;;;;5055653;28;20620;-43
2021/06/27 05:15:08;;;;;;;4.93;2.38;;;;;;;;;;5059905;28;20471;-43
2021/06/27 05:17:33;;;;;;;3.00;2.33;;;;;;;;;;5060287;28;20035;-43
2021/06/27 05:19:58;;;;;;;2.13;1.67;;;;;;;;;;5057035;28;20047;-42
2021/06/27 05:22:24;;;;;;;10.82;1.90;;;;;;;;;;5059367;28;20108;-46
2021/06/27 05:24:49;;;;;;;1.27;1.13;;;;;;;;;;5057223;28;20576;-42
2021/06/27 05:27:14;;;;;;;4.20;2.25;;;;;;;;;;5054449;28;20118;-42
2021/06/27 05:29:40;;;;;;;3.22;1.80;;;;;;;;;;5055244;28;20389;-42
2021/06/27 05:32:05;;;;;;;4.82;2.05;;;;;;;;;;5057385;28;20500;-42
2021/06/27 05:34:30;;;;;;;6.18;1.50;;;;;;;;;;5056275;28;20017;-44
2021/06/27 05:36:57;;;;;;;2.92;2.00;;;;;;;;;;5055335;28;20035;-42
2021/06/27 05:39:23;;;;;;;10.02;2.10;;;;;;;;;;5058174;28;20085;-43
2021/06/27 05:41:49;;;;;;;3.10;1.98;;;;;;;;;;5058291;28;20025;-44
2021/06/27 05:44:14;;;;;;;2.88;1.98;;;;;;;;;;5055929;28;20020;-44
2021/06/27 05:46:39;;;;;;;3.45;2.40;;;;;;;;;;5057891;28;20032;-44
2021/06/27 05:49:05;;;;;;;5.18;1.98;;;;;;;;;;5058934;28;20021;-43
2021/06/27 05:51:31;;;;;;;3.33;1.63;;;;;;;;;;5056974;28;20025;-46
2021/06/27 05:53:56;;;;;;;3.65;1.92;;;;;;;;;;5057060;28;20040;-43
2021/06/27 05:56:21;;;;;;;3.65;2.20;;;;;;;;;;5058511;28;20021;-45
2021/06/27 05:58:48;;;;;;;3.42;2.58;;;;;;;;;;5058261;28;20057;-43
2021/06/27 06:01:16;;;;;;;5.53;3.03;;;;;;;;;;5056199;28;20051;-46
2021/06/27 06:03:42;;;;;;;5.05;2.83;;;;;;;;;;5056962;28;20021;-44
2021/06/27 06:06:08;;;;;;;4.07;3.15;;;;;;;;;;5054562;28;20027;-45
2021/06/27 06:08:33;;;;;;;3.65;2.72;;;;;;;;;;5056429;28;20032;-43
2021/06/27 06:10:59;;;;;;;5.45;3.63;;;;;;;;;;5054195;28;20057;-43
2021/06/27 06:13:24;;;;;;;12.38;3.47;;;;;;;;;;5057715;28;20034;-43
2021/06/27 06:15:50;;;;;;;6.65;4.63;;;;;;;;;;5057648;28;20124;-44
2021/06/27 06:18:15;;;;;;;11.60;7.28;;;;;;;;;;5056840;28;20052;-44
2021/06/27 06:20:40;;;;;;;9.90;8.73;;;;;;;;;;5053893;28;20384;-43
2021/06/27 06:23:06;;;;;;;10.50;8.18;;;;;;;;;;5053525;28;20023;-48
2021/06/27 06:25:31;;;;;;;12.85;6.57;;;;;;;;;;5057525;28;20035;-49
2021/06/27 06:27:56;;;;;;;3.10;2.80;;;;;;;;;;5055124;28;20517;-48
2021/06/27 06:30:22;;;;;;;4.85;4.30;;;;;;;;;;5054083;28;20029;-45
2021/06/27 06:32:47;;;;;;;6.47;4.07;;;;;;;;;;5059369;28;20032;-47
2021/06/27 06:35:12;;;;;;;3.35;2.70;;;;;;;;;;5055316;28;20429;-45
2021/06/27 06:37:38;;;;;;;2.90;2.47;;;;;;;;;;5053842;28;20024;-44
2021/06/27 06:40:04;;;;;;;2.33;1.75;;;;;;;;;;5054522;28;20601;-44
2021/06/27 06:42:29;;;;;;;9.57;3.60;;;;;;;;;;5056161;28;20020;-44
2021/06/27 06:44:54;;;;;;;3.47;1.98;;;;;;;;;;5053995;28;20024;-44
2021/06/27 06:47:20;;;;;;;3.63;2.72;;;;;;;;;;5056832;28;20171;-48
2021/06/27 06:49:45;;;;;;;7.70;4.80;;;;;;;;;;5052804;28;20021;-43
2021/06/27 06:52:10;;;;;;;5.63;5.10;;;;;;;;;;5057521;28;20107;-45
2021/06/27 06:54:36;;;;;;;8.10;3.63;;;;;;;;;;5055580;28;20046;-47
2021/06/27 06:57:01;;;;;;;4.60;2.50;;;;;;;;;;5056717;28;20062;-44
2021/06/27 06:59:27;;;;;;;4.43;2.25;;;;;;;;;;5056511;28;20032;-43
2021/06/27 07:01:52;;;;;;;4.93;2.45;;;;;;;;;;5037149;28;20029;-46
2021/06/27 07:04:18;;;;;;;4.38;2.83;;;;;;;;;;5055760;28;20619;-44
2021/06/27 07:06:44;;;;;;;5.10;3.50;;;;;;;;;;5056956;28;20044;-47
2021/06/27 07:09:09;;;;;;;5.72;3.10;;;;;;;;;;5055401;28;20056;-45
2021/06/27 07:11:34;;;;;;;3.28;2.65;;;;;;;;;;5049593;28;20033;-45
2021/06/27 07:14:00;;;;;;;6.45;2.83;;;;;;;;;;5053866;28;20021;-44
2021/06/27 07:16:25;;;;;;;1.77;1.55;;;;;;;;;;5053520;28;20546;-47
2021/06/27 07:18:51;;;;;;;3.38;2.83;;;;;;;;;;5055039;28;20052;-46
2021/06/27 07:21:16;;;;;;;2.85;2.20;;;;;;;;;;5057164;28;20021;-46
2021/06/27 07:23:42;;;;;;;3.90;3.20;;;;;;;;;;5053577;28;20480;-47
2021/06/27 07:26:07;;;;;;;3.30;1.98;;;;;;;;;;5050714;28;20020;-42
2021/06/27 07:28:32;;;;;;;3.67;1.90;;;;;;;;;;5056235;28;20039;-44
2021/06/27 07:30:58;;;;;;;5.43;1.90;;;;;;;;;;5057678;28;20249;-47
2021/06/27 07:33:23;;;;;;;3.05;2.03;;;;;;;;;;5055001;28;20522;-46
2021/06/27 07:35:49;;;;;;;4.03;2.03;;;;;;;;;;5053117;28;20476;-46
2021/06/27 07:38:14;;;;;;;2.15;1.65;;;;;;;;;;5056960;28;20041;-45
2021/06/27 07:40:40;;;;;;;2.08;1.50;;;;;;;;;;5055210;28;20075;-43
2021/06/27 07:43:05;;;;;;;3.28;2.03;;;;;;;;;;5060830;28;20024;-45
2021/06/27 07:45:31;;;;;;;4.90;2.08;;;;;;;;;;5056324;28;20494;-44
2021/06/27 07:47:56;;;;;;;3.22;1.95;;;;;;;;;;5056754;28;20427;-44
2021/06/27 07:50:21;;;;;;;3.22;2.72;;;;;;;;;;5056254;28;20091;-45
2021/06/27 07:52:47;;;;;;;4.28;3.42;;;;;;;;;;5056634;28;20042;-45
2021/06/27 07:55:12;;;;;;;2.20;1.52;;;;;;;;;;5055170;28;20651;-44
2021/06/27 07:57:38;;;;;;;4.82;2.55;;;;;;;;;;5056822;28;20025;-44
2021/06/27 08:00:04;;;;;;;4.05;2.70;;;;;;;;;;5056726;28;20097;-42
2021/06/27 08:02:30;;;;;;;1.70;1.50;;;;;;;;;;5056773;28;20025;-44
2021/06/27 08:04:55;;;;;;;5.07;3.20;;;;;;;;;;5058272;28;20024;-43
2021/06/27 08:07:20;;;;;;;3.55;2.28;;;;;;;;;;5055043;28;20037;-42
2021/06/27 08:09:46;;;;;;;6.63;2.20;;;;;;;;;;5057603;28;20667;-46
2021/06/27 08:12:11;;;;;;;2.88;1.52;;;;;;;;;;5056082;28;20064;-46
2021/06/27 08:14:36;;;;;;;2.53;1.95;;;;;;;;;;5058341;28;20024;-44
2021/06/27 08:17:02;;;;;;;2.78;1.60;;;;;;;;;;5058584;28;20107;-48
2021/06/27 08:19:27;;;;;;;2.50;1.27;;;;;;;;;;5057575;28;20029;-45
2021/06/27 08:21:52;;;;;;;2.40;1.88;;;;;;;;;;5055070;28;20024;-45
2021/06/27 08:24:18;;;;;;;4.15;1.02;;;;;;;;;;5057213;28;20487;-44
2021/06/27 08:26:44;;;;;;;3.08;1.73;;;;;;;;;;5054793;28;20075;-45
2021/06/27 08:29:09;;;;;;;3.55;2.13;;;;;;;;;;5057236;28;20017;-44
2021/06/27 08:31:34;;;;;;;1.95;1.23;;;;;;;;;;5053680;28;20029;-43
2021/06/27 08:34:00;;;;;;;2.13;1.27;;;;;;;;;;5052997;28;20028;-43
2021/06/27 08:36:27;;;;;;;1.48;1.00;;;;;;;;;;5056746;28;20043;-43
2021/06/27 08:38:52;;;;;;;2.83;1.83;;;;;;;;;;5055834;28;20726;-43
2021/06/27 08:41:17;;;;;;;1.30;1.17;;;;;;;;;;5056137;28;20023;-42
2021/06/27 08:43:43;;;;;;;3.22;1.52;;;;;;;;;;5054728;28;20071;-58
2021/06/27 08:46:11;;;;;;;4.13;3.50;;;;;;;;;;5052286;28;20483;-58
2021/06/27 08:48:38;;;;;;;2.13;1.50;;;;;;;;;;5054256;28;20079;-58
2021/06/27 08:51:04;;;;;;;2.38;1.05;;;;;;;;;;5054088;28;20021;-58
2021/06/27 08:53:31;;;;;;;5.40;1.73;;;;;;;;;;5054365;28;20044;-58
2021/06/27 08:56:06;;;;;;;2.35;1.58;;;;;;;;;;5054717;28;20028;-58
2021/06/27 08:58:32;;;;;;;2.45;1.02;;;;;;;;;;5051217;28;20021;-58
2021/06/27 09:00:58;;;;;;;2.38;1.15;;;;;;;;;;5054908;28;20024;-58
2021/06/27 09:03:24;;;;;;;2.05;1.45;;;;;;;;;;5053564;28;20108;-59
2021/06/27 09:05:49;;;;;;;3.35;1.60;;;;;;;;;;5052464;28;20027;-58
2021/06/27 09:08:16;;;;;;;6.15;1.55;;;;;;;;;;5057188;28;20020;-58
2021/06/27 09:10:41;;;;;;;2.72;1.33;;;;;;;;;;5053906;28;20444;-58
2021/06/27 09:13:06;;;;;;;3.72;2.47;;;;;;;;;;5053982;28;20020;-58
2021/06/27 09:15:40;;;;;;;1.80;1.00;;;;;;;;;;5053122;28;20027;-58
2021/06/27 09:18:06;;;;;;;5.05;3.28;;;;;;;;;;5057617;28;20016;-58
2021/06/27 09:20:32;;;;;;;6.82;2.58;;;;;;;;;;5057464;28;20020;-58
2021/06/27 09:22:57;;;;;;;7.13;3.35;;;;;;;;;;5053866;28;20024;-61
2021/06/27 09:25:28;;;;;;;9.98;5.35;;;;;;;;;;5052820;28;20060;-61
2021/06/27 09:27:57;;;;;;;17.55;5.63;;;;;;;;;;5055450;28;20033;-61
2021/06/27 09:30:23;;;;;;;7.63;3.33;;;;;;;;;;5054368;28;20031;-61
2021/06/27 09:33:05;;;;;;;2.45;1.80;;;;;;;;;;5052918;28;20504;-61
2021/06/27 09:35:42;;;;;;;3.30;1.67;;;;;;;;;;5053177;28;20395;-61
2021/06/27 09:38:42;;;;;;;2.15;1.10;;;;;;;;;;5052660;28;20029;-61
2021/06/27 09:41:10;;;;;;;2.92;1.63;;;;;;;;;;5020323;28;20039;-61
2021/06/27 09:43:36;;;;;;;2.05;1.10;;;;;;;;;;5055497;28;20513;-62
2021/06/27 09:46:14;;;;;;;2.45;1.20;;;;;;;;;;5053660;28;20025;-62
2021/06/27 09:48:48;;;;;;;6.68;1.58;;;;;;;;;;5054477;28;20025;-61
2021/06/27 09:51:14;;;;;;;2.33;0.73;;;;;;;;;;5056352;28;20448;-61
2021/06/27 09:53:45;;;;;;;1.20;1.05;;;;;;;;;;5052866;28;20032;-62
2021/06/27 09:56:10;;;;;;;7.55;1.65;;;;;;;;;;5052969;28;20101;-61
2021/06/27 09:58:36;;;;;;;7.97;4.50;;;;;;;;;;5053634;28;20116;-62
2021/06/27 10:01:02;;;;;;;3.97;1.10;;;;;;;;;;5053691;28;20056;-61
2021/06/27 10:03:28;;;;;;;3.60;1.30;;;;;;;;;;5056723;28;20029;-61
2021/06/27 10:06:09;;;;;;;3.70;1.23;;;;;;;;;;5054197;28;20017;-62
2021/06/27 10:08:35;;;;;;;1.60;1.05;;;;;;;;;;5051393;28;20029;-62
2021/06/27 10:11:17;;;;;;;1.00;0.40;;;;;;;;;;5052814;28;20213;-61
2021/06/27 10:13:46;;;;;;;1.63;1.40;;;;;;;;;;5053640;28;20025;-62
2021/06/27 10:16:15;;;;;;;2.00;1.17;;;;;;;;;;5052982;28;20050;-62
2021/06/27 10:18:40;;;;;;;1.95;1.15;;;;;;;;;;5054865;28;20036;-61
2021/06/27 10:21:05;;;;;;;2.60;1.05;;;;;;;;;;5052635;28;20466;-62
2021/06/27 10:23:31;;;;;;;6.63;0.88;;;;;;;;;;5056992;28;20054;-60
2021/06/27 10:25:56;;;;;;;3.22;0.93;;;;;;;;;;5051835;28;20490;-62
2021/06/27 10:28:22;;;;;;;1.35;0.65;;;;;;;;;;5050909;28;20041;-61
2021/06/27 10:30:48;;;;;;;4.95;1.50;;;;;;;;;;5051472;28;20040;-61
2021/06/27 10:33:14;;;;;;;1.23;0.63;;;;;;;;;;5052759;28;20052;-61
2021/06/27 10:35:46;;;;;;;0.95;0.40;;;;;;;;;;5056822;28;20044;-61
2021/06/27 10:38:12;;;;;;;2.60;1.20;;;;;;;;;;5055158;28;20099;-62
2021/06/27 10:40:48;;;;;;;0.75;0.57;;;;;;;;;;5054817;28;20422;-61
2021/06/27 10:43:13;;;;;;;1.45;0.77;;;;;;;;;;5055863;28;20107;-61
2021/06/27 10:45:48;;;;;;;1.58;0.88;;;;;;;;;;5052818;28;20108;-60
2021/06/27 10:48:32;;;;;;;4.47;1.40;;;;;;;;;;5053522;28;20031;-57
2021/06/27 10:50:57;;;;;;;1.73;0.60;;;;;;;;;;5052389;28;20021;-59
2021/06/27 10:53:22;;;;;;;6.88;0.90;;;;;;;;;;5054455;28;20042;-59
2021/06/27 10:55:48;;;;;;;1.45;0.82;;;;;;;;;;5055754;28;20377;-59
2021/06/27 10:58:14;;;;;;;6.25;1.75;;;;;;;;;;5055028;28;20785;-60
2021/06/27 11:01:00;;;;;;;2.92;1.13;;;;;;;;;;5050379;28;20033;-61
2021/06/27 11:03:41;;;;;;;3.13;0.52;;;;;;;;;;5052641;28;20111;-60
2021/06/27 11:06:26;;;;;;;2.03;0.85;;;;;;;;;;5052620;28;20035;-60
2021/06/27 11:08:56;;;;;;;1.63;1.13;;;;;;;;;;5053722;28;20025;-59
2021/06/27 11:11:23;;;;;;;3.17;2.88;;;;;;;;;;5054543;28;20044;-60
2021/06/27 11:14:07;;;;;;;1.15;1.02;;;;;;;;;;5054487;28;20229;-58
2021/06/27 11:16:53;;;;;;;1.15;0.60;;;;;;;;;;5053727;28;20028;-60
2021/06/27 11:19:25;;;;;;;0.73;0.47;;;;;;;;;;5051773;28;20030;-60
2021/06/27 11:22:10;;;;;;;0.52;0.38;;;;;;;;;;5052638;28;20048;-60
2021/06/27 11:24:36;;;;;;;1.38;0.88;;;;;;;;;;5056762;28;20017;-60
2021/06/27 11:27:01;;;;;;;1.90;0.93;;;;;;;;;;5051201;28;20036;-58
2021/06/27 11:29:29;;;;;;;0.45;0.35;;;;;;;;;;5049022;28;20527;-60
2021/06/27 11:31:55;;;;;;;1.15;0.50;;;;;;;;;;5052082;28;20033;-59
2021/06/27 11:34:20;;;;;;;0.80;0.50;;;;;;;;;;5053306;28;20033;-59
2021/06/27 11:36:46;;;;;;;1.45;0.60;;;;;;;;;;5053842;28;20251;-59
2021/06/27 11:39:30;;;;;;;0.95;0.30;;;;;;;;;;5054679;28;20044;-59
2021/06/27 11:41:55;;;;;;;1.13;0.57;;;;;;;;;;5052580;28;20029;-59
2021/06/27 11:44:20;;;;;;;0.63;0.20;;;;;;;;;;5051351;28;20466;-59
2021/06/27 11:46:46;;;;;;;1.00;0.60;;;;;;;;;;5055362;28;20549;-59
2021/06/27 11:49:15;;;;;;;0.70;0.40;;;;;;;;;;5051959;28;20019;-40
2021/06/27 11:51:45;;;;;;;0.70;0.45;;;;;;;;;;5052088;28;20025;-40
2021/06/27 11:54:12;;;;;;;3.57;0.30;;;;;;;;;;5052695;28;20021;-39
2021/06/27 11:56:56;;;;;;;1.88;0.90;;;;;;;;;;5053167;28;20065;-40
2021/06/27 11:59:25;;;;;;;0.70;0.38;;;;;;;;;;5054081;28;20112;-39
2021/06/27 12:02:09;;;;;;;1.10;0.40;;;;;;;;;;5052331;28;20089;-38
2021/06/27 12:04:52;;;;;;;0.68;0.40;;;;;;;;;;5053325;28;20542;-39
2021/06/27 12:07:31;;;;;;;1.48;0.98;;;;;;;;;;5050124;28;20032;-38
2021/06/27 12:09:57;;;;;;;1.05;0.57;;;;;;;;;;5054298;28;20024;-38
2021/06/27 12:12:32;;;;;;;1.50;1.10;;;;;;;;;;5050403;28;20017;-39
2021/06/27 12:14:57;;;;;;;3.55;2.42;;;;;;;;;;5054686;28;20017;-38
2021/06/27 12:17:24;;;;;;;2.97;1.52;;;;;;;;;;5048705;28;20032;-40
2021/06/27 12:19:50;;;;;;;11.05;8.43;;;;;;;;;;5054105;28;20028;-38
2021/06/27 12:22:15;;;;;;;4.82;3.30;;;;;;;;;;5059825;28;20037;-41
2021/06/27 12:24:41;;;;;;;1.15;0.80;;;;;;;;;;5053303;28;20056;-39
2021/06/27 12:27:10;;;;;;;0.77;0.50;;;;;;;;;;5058151;28;20559;-38
2021/06/27 12:29:35;;;;;;;1.00;0.50;;;;;;;;;;5057410;28;20097;-37
2021/06/27 12:32:04;;;;;;;0.60;0.50;;;;;;;;;;5057628;28;20491;-41
2021/06/27 12:34:30;;;;;;;1.08;0.57;;;;;;;;;;5056129;28;20027;-38
2021/06/27 12:36:55;;;;;;;4.32;0.63;;;;;;;;;;5052905;28;20433;-38
2021/06/27 12:39:22;;;;;;;0.43;0.30;;;;;;;;;;5054941;28;20732;-37
2021/06/27 12:41:48;;;;;;;1.23;0.52;;;;;;;;;;5056975;28;20024;-38
2021/06/27 12:44:15;;;;;;;1.08;0.55;;;;;;;;;;5057539;28;20031;-38
2021/06/27 12:46:41;;;;;;;0.95;0.50;;;;;;;;;;5054258;28;20029;-38
2021/06/27 12:49:07;;;;;;;1.00;0.38;;;;;;;;;;5055280;28;20021;-41
2021/06/27 12:51:35;;;;;;;0.77;0.50;;;;;;;;;;5057373;28;20024;-37
2021/06/27 12:54:07;;;;;;;2.08;0.70;;;;;;;;;;5054840;28;20155;-37
2021/06/27 12:56:38;;;;;;;0.85;0.55;;;;;;;;;;5056377;28;20024;-37
2021/06/27 12:59:06;;;;;;;5.53;4.18;;;;;;;;;;5055336;28;20021;-38
2021/06/27 13:01:51;;;;;;;8.10;6.57;;;;;;;;;;5053985;28;20094;-38
2021/06/27 13:04:22;;;;;;;3.33;1.55;;;;;;;;;;5055288;28;20025;-37
2021/06/27 13:06:57;;;;;;;1.65;0.80;;;;;;;;;;5057696;28;20020;-38
2021/06/27 13:09:22;;;;;;;1.48;0.80;;;;;;;;;;5062495;28;20020;-37
2021/06/27 13:12:06;;;;;;;1.27;0.68;;;;;;;;;;5059654;28;20106;-38
2021/06/27 13:14:32;;;;;;;1.90;0.95;;;;;;;;;;5058060;28;20020;-37
2021/06/27 13:17:01;;;;;;;2.28;1.13;;;;;;;;;;5057571;28;20036;-38
2021/06/27 13:19:26;;;;;;;1.52;1.00;;;;;;;;;;5060819;28;20469;-39
2021/06/27 13:22:06;;;;;;;1.77;0.77;;;;;;;;;;5055232;28;20023;-60
2021/06/27 13:24:31;;;;;;;0.98;0.52;;;;;;;;;;5057876;28;20529;-60
2021/06/27 13:27:09;;;;;;;1.23;0.82;;;;;;;;;;5057103;28;20024;-58
2021/06/27 13:29:34;;;;;;;1.00;0.63;;;;;;;;;;5056202;28;20021;-60
2021/06/27 13:31:59;;;;;;;3.70;1.50;;;;;;;;;;5057643;28;20750;-60
2021/06/27 13:34:31;;;;;;;1.55;1.10;;;;;;;;;;5059777;28;20078;-60
2021/06/27 13:36:57;;;;;;;4.18;1.55;;;;;;;;;;5057881;28;20025;-59
2021/06/27 13:39:22;;;;;;;2.00;0.90;;;;;;;;;;5058352;28;20036;-59
2021/06/27 13:41:48;;;;;;;1.70;0.55;;;;;;;;;;5056736;28;20032;-69
2021/06/27 13:44:13;;;;;;;0.88;0.65;;;;;;;;;;5055603;28;20527;-61
2021/06/27 13:46:40;;;;;;;0.73;0.43;;;;;;;;;;5054047;28;20066;-61
2021/06/27 13:49:05;;;;;;;2.47;1.20;;;;;;;;;;5050925;28;20052;-61
2021/06/27 13:51:31;;;;;;;1.92;1.40;;;;;;;;;;5055622;28;20686;-61
2021/06/27 13:53:56;;;;;;;2.25;1.00;;;;;;;;;;5051582;28;20157;-61
2021/06/27 13:56:21;;;;;;;1.73;0.93;;;;;;;;;;5050148;28;20024;-62
2021/06/27 13:58:47;;;;;;;2.25;1.23;;;;;;;;;;5052512;28;20024;-60
2021/06/27 14:01:13;;;;;;;4.47;1.05;;;;;;;;;;5057210;28;20035;-62
2021/06/27 14:03:38;;;;;;;2.78;0.93;;;;;;;;;;5050194;28;20020;-62
2021/06/27 14:06:04;;;;;;;1.85;0.98;;;;;;;;;;5055045;28;20396;-62
2021/06/27 14:08:29;;;;;;;6.28;0.68;;;;;;;;;;5050506;28;20033;-61
2021/06/27 14:11:00;;;;;;;1.85;1.23;;;;;;;;;;5055079;28;20139;-62
2021/06/27 14:13:26;;;;;;;2.15;1.20;;;;;;;;;;5051478;28;20104;-61
2021/06/27 14:15:51;;;;;;;1.52;0.60;;;;;;;;;;5053150;28;20099;-62
2021/06/27 14:18:16;;;;;;;3.40;1.65;;;;;;;;;;5057429;28;20112;-62
2021/06/27 14:20:42;;;;;;;1.63;0.88;;;;;;;;;;5052594;28;20032;-61
2021/06/27 14:23:07;;;;;;;1.58;0.93;;;;;;;;;;5045759;28;20052;-61
2021/06/27 14:25:32;;;;;;;1.20;0.88;;;;;;;;;;5053660;28;20028;-62
2021/06/27 14:27:58;;;;;;;4.88;1.45;;;;;;;;;;5056292;28;20032;-62
2021/06/27 14:30:23;;;;;;;4.95;1.08;;;;;;;;;;5056006;28;20475;-61
2021/06/27 14:32:48;;;;;;;4.32;1.50;;;;;;;;;;5055536;28;20020;-61
2021/06/27 14:35:14;;;;;;;1.48;1.15;;;;;;;;;;5053875;28;20035;-61
2021/06/27 14:37:40;;;;;;;3.30;1.65;;;;;;;;;;5053075;28;20427;-61
2021/06/27 14:40:07;;;;;;;1.73;1.15;;;;;;;;;;5054726;28;20037;-61
2021/06/27 14:42:32;;;;;;;1.08;0.82;;;;;;;;;;5053904;28;20025;-61